Date,TemperatureHighF,TemperatureAvgF,TemperatureLowF,DewpointHighF,DewpointAvgF,DewpointLowF,HumidityHigh,HumidityAvg,HumidityLow,PressureMaxIn,PressureMinIn,WindSpeedMaxMPH,WindSpeedAvgMPH,GustSpeedMaxMPH,PrecipitationSumIn
2013-1-1,35,31,28,35,30,27,98,97,97,30.44,30.30,0,0,0,0.00
2013-1-2,37,31,28,37,30,28,99,97,95,30.30,30.14,0,0,0,0.00
2013-1-3,38,32,26,34,30,26,98,92,80,30.15,30.03,0,0,0,0.00
2013-1-4,47,41,34,46,41,33,99,98,96,30.26,30.10,0,0,0,0.00
2013-1-5,42,39,37,41,38,37,99,98,97,30.15,30.05,0,0,0,0.00
2013-1-6,44,40,38,43,39,38,99,98,96,30.13,29.94,0,0,0,0.00
2013-1-7,45,41,39,44,41,38,99,99,98,30.11,29.78,0,0,0,0.00
2013-1-8,43,41,40,43,41,40,99,99,99,30.11,29.82,0,0,0,0.00
2013-1-9,47,37,33,46,36,32,99,98,97,29.90,29.63,114,0,114,0.00
2013-1-10,35,33,30,34,32,30,98,98,97,30.05,29.89,0,0,0,0.00
2013-1-11,32,29,25,31,28,24,98,97,96,30.27,30.05,0,0,0,0.00
2013-1-12,31,26,23,30,25,22,97,96,95,30.38,30.25,0,0,0,0.00
2013-1-13,32,27,22,31,26,21,96,96,94,30.43,30.37,0,0,0,0.00
2013-1-14,33,32,29,32,31,28,97,97,96,30.51,30.41,0,0,0,0.00
2013-1-15,38,32,29,36,32,28,98,97,96,30.64,30.51,0,0,0,0.00
2013-1-16,36,29,25,35,28,24,98,97,97,30.62,30.46,0,0,0,0.00
2013-1-17,37,29,25,36,29,25,98,97,97,30.47,30.23,0,0,0,0.00
2013-1-18,34,29,25,33,29,24,98,97,97,30.29,30.20,0,0,0,0.00
2013-1-19,32,29,26,32,29,26,97,97,96,30.33,30.28,0,0,0,0.00
2013-1-20,34,28,23,33,27,22,97,96,95,30.34,30.21,0,0,0,0.00
2013-1-21,32,27,23,31,26,22,97,96,96,30.22,30.07,0,0,0,0.00
2013-1-22,35,29,24,34,28,22,98,96,95,30.11,29.84,0,0,0,0.00
2013-1-23,34,34,33,34,33,32,98,98,98,29.92,29.83,0,0,0,0.00
2013-1-25,41,37,35,40,36,34,98,98,97,29.91,29.88,0,0,0,0.00
2013-1-26,39,36,34,39,36,33,99,99,98,29.98,29.83,0,0,0,0.00
2013-1-27,39,36,35,39,36,34,99,98,97,30.00,29.94,0,0,0,0.00
2013-1-28,36,34,33,36,34,32,99,98,98,30.04,29.94,0,0,0,0.00
2013-1-29,36,35,35,36,35,35,99,99,99,30.10,30.03,0,0,0,0.00
2013-2-1,44,39,35,44,38,34,98,97,97,30.35,30.32,0,0,0,0.00
2013-2-2,39,34,30,39,33,30,98,98,97,30.33,30.20,0,0,0,0.00
2013-2-3,37,35,34,36,35,33,99,98,98,30.24,30.22,0,0,0,0.00
2013-2-7,39,34,31,37,33,30,95,94,93,30.14,30.05,0,0,0,0.00
2013-2-8,35,30,29,34,29,28,97,96,95,30.25,30.14,0,0,0,0.00
2013-2-9,39,39,39,38,38,38,97,97,97,30.23,30.23,0,0,0,0.00
2013-2-10,35,32,31,34,31,30,97,97,97,30.33,30.29,0,0,0,0.00
2013-2-11,43,39,36,42,38,36,98,97,96,30.31,30.27,114,114,114,0.00
2013-2-12,47,43,40,46,42,39,99,98,96,30.35,30.24,114,114,114,0.00
2013-2-13,47,43,41,45,42,40,98,96,94,30.44,30.26,114,114,114,0.00
2013-2-14,40,40,40,40,39,39,97,97,97,30.45,30.45,114,114,114,0.00
2013-2-15,50,38,34,46,37,32,97,95,89,30.47,30.12,0,0,0,0.00
2013-2-16,45,41,35,44,40,34,99,97,96,30.15,30.08,0,0,0,0.00
2013-2-17,43,38,34,41,37,32,98,97,94,30.20,30.07,0,0,0,0.00
2013-2-18,40,35,32,40,34,31,98,97,93,30.07,29.72,0,0,0,0.00
2013-2-19,44,36,32,38,34,30,97,93,81,29.95,29.70,0,0,0,0.00
2013-2-20,42,36,31,40,35,30,97,95,89,29.99,29.94,0,0,0,0.00
2013-2-21,39,37,36,38,36,35,98,97,96,29.99,29.95,0,0,0,0.00
2013-2-22,41,34,33,40,33,32,97,96,95,29.85,29.67,0,0,0,0.00
2013-2-23,37,35,34,36,34,33,98,98,97,30.32,29.85,0,0,0,0.00
2013-2-24,35,35,35,34,34,34,97,97,97,30.32,30.31,0,0,0,0.00
2013-2-25,42,40,39,36,36,35,90,83,77,30.25,30.12,2,0,2,0.00
2013-2-26,40,36,33,39,34,32,96,93,88,30.30,30.16,0,0,0,0.00
2013-2-27,44,40,39,41,38,37,96,94,89,30.25,30.15,0,0,0,0.00
2013-2-28,41,40,39,40,38,38,97,96,95,30.22,30.14,0,0,0,0.00
2013-3-2,49,41,37,43,39,36,95,92,81,30.14,30.05,0,0,0,0.00
2013-3-3,42,37,32,41,36,30,97,95,92,30.26,30.14,0,0,0,0.00
2013-3-4,46,34,29,37,31,27,97,90,69,30.25,29.89,0,0,0,0.00
2013-3-5,48,40,36,40,36,31,88,84,74,29.89,29.68,0,0,0,0.00
2013-3-6,44,40,36,42,38,34,95,93,88,29.86,29.54,0,0,0,0.00
2013-3-7,45,39,34,44,38,33,97,96,94,30.05,29.86,0,0,0,0.00
2013-3-8,46,34,31,42,33,30,96,94,84,30.19,30.02,0,0,0,0.00
2013-3-9,47,35,31,42,33,30,97,93,81,30.44,30.19,0,0,0,0.00
2013-3-10,46,40,34,43,38,32,95,92,84,30.45,30.37,0,0,0,0.00
2013-3-11,46,40,35,43,38,33,96,93,89,30.39,30.12,0,0,0,0.00
2013-3-14,48,47,46,47,46,45,96,96,95,30.11,30.03,0,0,0,0.00
2013-3-15,49,47,46,47,46,45,98,97,93,30.14,30.09,0,0,0,0.00
2013-3-16,49,43,36,47,41,35,96,94,84,30.09,29.84,0,0,0,0.00
2013-3-17,46,40,36,41,37,34,96,91,78,30.14,29.91,1,0,1,0.00
2013-3-18,47,39,34,42,36,32,96,89,65,30.20,30.05,0,0,0,0.00
2013-3-19,48,38,33,42,35,31,94,90,69,30.19,29.56,6,0,6,0.00
2013-3-20,48,45,42,47,44,40,97,96,93,29.56,29.35,2,0,2,0.00
2013-3-21,43,40,36,40,37,34,96,91,87,30.15,30.09,1,0,1,0.00
2013-3-22,43,35,31,39,33,29,95,92,83,30.32,30.14,0,0,0,0.00
2013-3-23,45,35,30,38,32,29,96,89,70,30.35,30.25,0,0,0,0.00
2013-3-24,50,35,30,40,32,28,95,87,59,30.26,30.08,0,0,0,0.00
2013-3-25,55,38,31,39,32,29,92,82,53,30.10,29.90,0,0,0,0.00
2013-3-26,55,42,35,42,36,32,90,81,58,29.96,29.92,0,0,0,0.00
2013-3-27,56,46,40,46,41,37,91,84,69,29.95,29.89,0,0,0,0.00
2013-3-28,58,45,39,48,42,37,92,87,68,30.10,29.95,0,0,0,0.00
2013-3-29,57,45,39,46,41,37,95,88,67,30.21,30.10,0,0,0,0.00
2013-3-30,61,44,37,49,40,34,94,86,64,30.22,30.04,0,0,0,0.00
2013-3-31,65,46,38,50,41,35,94,84,56,30.04,29.87,0,0,0,0.00
2013-4-1,62,51,41,52,46,38,93,83,68,30.11,29.92,0,0,0,0.00
2013-4-2,53,50,48,49,47,45,92,88,84,30.16,30.11,0,0,0,0.00
2013-4-3,63,52,46,51,47,44,93,82,63,30.14,29.91,0,0,0,0.00
2013-4-4,56,51,46,53,48,44,96,91,86,29.92,29.60,0,0,0,0.00
2013-4-5,57,51,47,52,48,45,96,92,80,29.83,29.69,3,0,3,0.00
2013-4-6,53,47,44,48,44,40,95,89,78,29.88,29.66,1,0,1,0.00
2013-4-7,45,42,40,42,40,38,94,92,88,29.84,29.46,0,0,0,0.00
2013-4-8,52,45,41,48,43,40,95,93,86,30.23,29.85,0,0,0,0.00
2013-4-9,54,48,42,48,44,41,96,88,76,30.30,30.14,0,0,0,0.00
2013-4-10,52,49,45,50,46,42,95,89,81,30.20,29.86,0,0,0,0.00
2013-4-11,52,46,38,46,42,35,94,86,72,30.25,30.14,0,0,0,0.00
2013-4-12,48,40,35,43,38,33,95,90,79,30.14,29.64,0,0,0,0.00
2013-4-13,47,39,36,45,38,34,94,93,89,29.94,29.69,0,0,0,0.00
2013-4-14,51,42,37,45,40,36,95,90,73,29.97,29.87,0,0,0,0.00
2013-4-15,55,44,36,46,40,34,95,86,67,30.13,29.90,0,0,0,0.00
2013-4-16,55,43,32,47,38,30,95,83,62,30.35,30.13,0,0,0,0.00
2013-4-17,60,46,34,45,38,32,94,76,52,30.41,30.35,0,0,0,0.00
2013-4-18,50,46,42,45,42,38,95,87,79,30.41,30.17,0,0,0,0.00
2013-4-19,55,49,46,52,48,45,96,94,91,30.17,30.02,0,0,0,0.00
2013-4-20,55,48,45,51,46,43,95,93,84,30.24,30.14,0,0,0,0.00
2013-4-21,50,45,38,47,43,36,95,92,85,30.32,30.18,0,0,0,0.00
2013-4-22,60,45,33,48,38,31,96,77,51,30.47,30.32,0,0,0,0.00
2013-4-23,62,48,33,46,38,30,92,72,43,30.38,30.20,0,0,0,0.00
2013-4-24,67,52,36,49,40,33,92,66,36,30.28,30.03,2,0,2,0.00
2013-4-25,70,55,38,48,42,34,87,65,42,30.10,30.00,3,0,3,0.00
2013-4-26,69,55,42,53,46,38,90,72,55,30.20,30.10,2,0,2,0.00
2013-4-27,55,51,49,47,44,42,91,78,62,30.18,30.10,0,0,0,0.00
2013-4-28,56,50,46,50,46,43,92,87,74,30.17,29.89,0,0,0,0.00
2013-4-29,56,47,41,44,38,33,93,71,48,30.11,29.88,5,0,5,0.00
2013-4-30,52,44,36,45,37,31,87,76,61,30.40,30.11,0,0,0,0.00
2013-5-1,64,48,32,44,37,29,91,68,46,30.53,30.40,0,0,0,0.00
2013-5-2,69,54,39,50,42,35,89,66,43,30.50,30.32,3,0,3,0.00
2013-5-3,69,55,39,53,45,35,90,71,54,30.35,30.19,3,0,3,0.00
2013-5-4,77,60,42,56,47,39,92,65,35,30.20,29.97,3,0,3,0.00
2013-5-5,81,64,45,57,49,41,87,62,38,29.98,29.75,3,0,3,0.00
2013-5-6,85,67,48,58,50,43,82,58,34,29.83,29.73,2,0,2,0.00
2013-5-7,72,60,49,58,51,44,87,72,57,29.96,29.79,3,0,3,0.00
2013-5-8,62,55,49,54,50,46,89,83,74,30.11,29.96,0,0,0,0.00
2013-5-9,72,57,46,59,51,44,92,81,64,30.19,30.08,3,0,3,0.00
2013-5-10,78,62,46,61,53,43,93,73,52,30.16,30.08,3,0,3,0.00
2013-5-11,58,54,53,55,50,49,90,86,79,30.15,30.10,0,0,0,0.00
2013-5-13,51,48,47,46,44,44,90,88,83,30.15,30.09,0,0,0,0.00
2013-5-14,66,54,46,50,45,41,90,72,46,30.19,30.08,2,0,2,0.00
2013-5-15,70,55,43,51,46,39,88,73,49,30.09,29.97,4,0,4,0.00
2013-5-16,68,58,51,57,52,47,92,81,63,29.99,29.83,0,0,0,0.00
2013-5-17,60,55,52,55,51,49,91,86,80,30.01,29.90,0,0,0,0.00
2013-5-18,56,52,50,49,48,47,88,86,78,30.08,30.01,0,0,0,0.00
2013-5-19,63,56,49,54,51,45,92,83,68,30.36,30.31,0,0,0,0.00
2013-5-20,70,55,43,56,48,40,92,78,56,30.31,29.87,4,0,4,0.00
2013-5-21,53,49,47,50,46,44,91,88,80,29.87,29.74,0,0,0,0.00
2013-5-22,51,47,45,48,45,43,93,90,87,29.91,29.81,0,0,0,0.00
2013-5-23,60,48,41,51,44,38,94,87,70,29.98,29.88,4,0,4,0.00
2013-5-24,60,51,41,50,46,39,94,83,67,30.01,29.93,0,0,0,0.00
2013-5-25,64,55,48,52,48,45,92,79,58,30.00,29.94,0,0,0,0.00
2013-5-26,61,54,47,55,50,44,91,86,78,29.96,29.91,0,0,0,0.00
2013-5-27,61,55,50,57,52,48,94,90,82,29.93,29.69,0,0,0,0.00
2013-5-28,61,55,50,55,51,48,94,87,77,29.85,29.74,0,0,0,0.00
2013-5-29,56,52,49,53,49,47,93,90,85,29.93,29.64,0,0,0,0.00
2013-5-30,60,53,47,54,49,45,94,87,75,30.20,29.93,0,0,0,0.00
2013-5-31,66,56,49,53,48,44,91,76,56,30.30,30.20,0,0,0,0.00
2013-6-1,72,59,48,57,50,44,90,73,51,30.21,30.02,0,0,0,0.00
2013-6-2,67,58,51,55,50,47,91,77,57,30.06,30.00,0,0,0,0.00
2013-6-3,72,60,46,59,51,43,91,75,59,30.08,30.02,3,0,3,0.00
2013-6-4,78,64,47,62,53,44,93,69,46,30.10,29.99,4,0,4,0.00
2013-6-5,78,64,50,61,54,46,88,72,52,30.07,30.00,0,0,0,0.00
2013-6-6,80,64,50,63,52,44,92,67,45,30.02,29.98,5,0,5,0.00
2013-6-7,63,56,52,52,47,44,80,73,57,30.13,29.99,2,0,2,0.00
2013-6-8,69,59,50,55,49,44,84,70,57,30.15,30.08,2,0,2,0.00
2013-6-9,68,57,50,52,47,43,85,70,50,30.09,30.00,2,0,2,0.00
2013-6-10,68,57,44,54,47,40,87,70,51,30.02,29.85,3,0,3,0.00
2013-6-11,64,55,49,53,48,45,88,78,62,30.07,29.90,2,0,2,0.00
2013-6-12,68,57,48,53,48,45,90,75,53,30.10,30.07,1,0,1,0.00
2013-6-13,64,57,52,56,51,47,89,81,71,30.17,30.10,0,0,0,0.00
2013-6-14,66,57,51,53,50,47,88,76,62,30.19,30.04,0,0,0,0.00
2013-6-15,76,63,44,60,53,41,92,71,52,30.02,29.88,0,0,0,0.00
2013-6-16,75,63,51,60,55,48,90,76,57,30.05,29.96,0,0,0,0.00
2013-6-17,76,63,51,60,54,48,90,72,50,30.06,29.86,0,0,0,0.00
2013-6-18,73,62,54,56,51,48,90,68,51,29.95,29.84,2,0,2,0.00
2013-6-19,64,58,54,57,52,49,88,83,71,29.97,29.88,0,0,0,0.00
2013-6-20,56,53,51,53,50,49,92,90,85,30.08,29.93,0,0,0,0.00
2013-6-21,66,57,51,58,53,49,94,85,71,30.13,30.07,0,0,0,0.00
2013-6-22,77,64,49,61,54,47,95,72,48,30.10,29.83,0,0,0,0.00
2013-6-23,71,63,54,62,58,51,91,84,71,29.83,29.56,0,0,0,0.00
2013-6-24,66,61,56,59,57,53,93,87,73,29.67,29.55,0,0,0,0.00
2013-6-25,70,60,54,62,56,52,94,86,69,29.84,29.65,0,0,0,0.00
2013-6-26,70,61,53,63,57,51,94,87,73,30.06,29.82,0,0,0,0.00
2013-6-27,70,63,57,64,60,54,93,89,81,30.18,30.02,0,0,0,0.00
2013-6-28,86,72,58,70,63,56,94,76,51,30.17,30.00,2,0,2,0.00
2013-6-29,84,72,62,69,63,58,92,75,56,30.08,29.97,2,0,2,0.00
2013-6-30,92,76,60,73,65,58,99,72,49,29.99,29.83,0,0,0,0.00
2013-7-1,86,74,62,69,63,58,96,71,53,30.00,29.88,0,0,0,0.00
2013-7-2,80,71,62,68,59,48,99,69,43,30.08,30.00,1,0,1,0.00
2013-7-3,96,79,68,96,64,40,99,65,32,30.13,30.02,2,0,2,0.00
2013-7-4,96,81,74,95,70,50,99,72,41,30.09,29.99,0,0,0,0.00
2013-7-5,96,80,74,96,69,51,99,73,40,30.00,29.92,0,0,0,0.00
2013-7-6,96,80,74,96,66,54,99,64,41,29.94,29.83,3,0,3,0.00
2013-7-7,96,83,78,96,65,39,99,59,23,29.92,29.84,1,0,1,0.00
2013-7-8,97,89,86,94,66,48,96,48,27,30.05,30.01,0,0,0,0.00
2013-7-9,110,93,90,88,46,26,50,21,10,30.07,29.99,0,0,0,0.00
2013-7-15,76,66,59,55,48,43,55,53,48,29.92,29.87,0,0,0,0.00
2013-7-16,105,71,53,88,54,37,59,55,55,29.89,29.77,0,0,0,0.00
2013-7-17,75,66,61,59,50,46,58,57,55,30.15,29.85,0,0,0,0.00
2013-7-18,77,66,57,61,51,42,58,58,57,30.20,30.09,0,0,0,0.00
2013-7-19,79,65,53,64,50,38,59,58,58,30.14,30.01,0,0,0,0.00
2013-7-20,74,62,54,59,48,40,60,60,59,30.06,29.93,0,0,0,0.00
2013-7-21,74,62,53,60,48,40,61,61,60,29.95,29.87,0,0,0,0.00
2013-7-22,76,64,56,62,51,43,62,61,61,30.03,29.90,0,0,0,0.00
2013-7-23,84,68,54,69,54,41,62,62,61,30.04,29.93,0,0,0,0.00
2013-7-24,84,68,54,69,55,41,63,62,60,30.02,29.97,0,0,0,0.00
2013-7-25,83,67,51,68,54,39,62,61,60,30.07,30.01,0,0,0,0.00
2013-7-26,83,67,52,68,53,38,61,61,60,30.12,30.06,0,0,0,0.00
2013-7-27,78,65,50,64,51,38,61,60,59,30.12,29.96,0,0,0,0.00
2013-7-28,75,64,51,61,50,38,61,60,59,29.98,29.92,0,0,0,0.00
2013-7-29,76,65,58,61,51,44,62,61,60,29.98,29.92,0,0,0,0.00
2013-7-30,79,66,55,64,52,42,62,61,60,30.10,29.97,0,0,0,0.00
2013-7-31,74,62,54,60,49,41,63,62,61,30.09,29.94,0,0,0,0.00
2013-8-1,64,61,58,51,48,46,63,63,62,30.03,29.99,0,0,0,0.00
2013-8-2,61,59,58,48,47,45,65,64,63,30.10,30.02,0,0,0,0.00
2013-8-3,73,65,58,61,53,46,66,65,64,30.10,30.02,0,0,0,0.00
2013-8-4,81,67,58,68,55,46,66,66,65,30.04,29.91,0,0,0,0.00
2013-8-5,84,69,56,70,57,44,66,66,65,29.98,29.90,0,0,0,0.00
2013-8-6,84,68,54,71,56,42,66,65,64,29.97,29.89,0,0,0,0.00
2013-8-7,84,69,54,70,56,43,65,64,64,29.98,29.91,0,0,0,0.00
2013-8-8,82,68,58,68,56,46,65,64,63,30.00,29.92,0,0,0,0.00
2013-8-9,83,68,55,69,55,43,65,64,63,29.94,29.81,0,0,0,0.00
2013-8-10,82,70,62,68,57,50,65,64,63,29.99,29.82,0,0,0,0.00
2013-8-11,72,65,59,60,53,47,66,65,64,30.04,29.96,0,0,0,0.00
2013-8-12,78,66,58,66,54,46,66,65,65,30.04,29.97,0,0,0,0.00
2013-8-13,81,68,56,68,55,45,66,65,65,30.07,29.90,0,0,0,0.00
2013-8-14,61,59,58,49,47,46,66,65,65,29.92,29.90,0,0,0,0.00
2013-8-15,71,66,63,59,54,52,67,66,65,29.96,29.90,0,0,0,0.00
2013-8-16,83,71,63,71,59,52,68,67,66,29.98,29.91,0,0,0,0.00
2013-8-17,76,67,61,64,56,50,68,67,67,30.04,29.97,0,0,0,0.00
2013-8-18,78,66,59,66,55,48,68,67,67,30.09,30.04,0,0,0,0.00
2013-8-19,78,66,58,66,55,47,68,67,67,30.09,30.03,0,0,0,0.00
2013-8-20,77,64,53,65,53,42,68,67,66,30.13,30.03,0,0,0,0.00
2013-8-21,81,64,50,69,53,39,67,67,66,30.07,29.91,0,0,0,0.00
2013-8-22,83,67,54,70,56,43,67,66,66,29.93,29.77,0,0,0,0.00
2013-8-23,74,66,60,62,54,48,67,66,66,29.87,29.80,0,0,0,0.00
2013-8-24,73,63,57,61,52,46,67,67,66,29.89,29.83,0,0,0,0.00
2013-8-25,75,61,51,63,50,40,68,67,67,29.92,29.83,0,0,0,0.00
2013-8-26,76,64,58,64,53,47,69,68,67,29.93,29.82,0,0,0,0.00
2013-8-27,79,68,59,67,56,49,69,68,67,29.93,29.77,0,0,0,0.00
2013-8-28,78,67,60,67,56,49,69,68,68,29.87,29.79,0,0,0,0.00
2013-8-29,71,65,63,60,55,53,70,69,68,29.99,29.83,0,0,0,0.00
2013-8-30,78,67,59,68,56,49,71,70,69,30.12,29.99,0,0,0,0.00
2013-9-6,70,63,60,61,54,51,72,72,71,30.07,29.91,0,0,0,0.00
2013-9-7,73,65,60,63,56,51,73,72,72,30.08,29.98,0,0,0,0.00
2013-9-8,76,64,56,67,56,47,73,73,72,30.07,30.00,0,0,0,0.00
2013-9-9,77,65,56,68,56,48,73,73,72,30.03,29.95,0,0,0,0.00
2013-9-10,77,64,57,68,56,48,74,73,73,29.96,29.86,0,0,0,0.00
2013-9-11,87,69,56,78,60,48,74,73,72,29.91,29.85,0,0,0,0.00
2013-9-12,79,68,58,69,59,49,73,73,72,29.97,29.87,0,0,0,0.00
2013-9-13,65,61,57,56,53,48,73,73,72,29.94,29.85,0,0,0,0.00
2013-9-14,67,64,61,58,55,52,74,73,73,29.86,29.71,0,0,0,0.00
2013-9-15,66,62,60,57,54,52,75,74,74,29.79,29.68,0,0,0,0.00
2013-9-16,63,60,57,55,52,49,75,75,74,29.91,29.78,0,0,0,0.00
2013-9-17,61,57,55,53,50,47,76,75,75,29.91,29.83,0,0,0,0.00
2013-9-18,66,57,52,58,50,44,76,76,75,30.04,29.90,0,0,0,0.00
2013-9-19,75,58,46,67,50,39,76,76,75,30.02,29.73,0,0,0,0.00
2013-9-20,75,60,49,66,52,41,76,75,74,29.74,29.55,0,0,0,0.00
2013-9-21,69,61,56,61,53,48,75,75,74,29.68,29.61,0,0,0,0.00
2013-9-22,58,57,54,50,49,46,75,75,74,29.69,29.55,0,0,0,0.00
2013-9-23,58,55,51,50,47,43,75,75,75,29.93,29.69,0,0,0,0.00
2013-9-24,59,53,50,51,45,42,76,75,75,29.93,29.80,0,0,0,0.00
2013-9-25,57,52,47,49,44,39,76,75,75,29.99,29.82,0,0,0,0.00
2013-9-26,64,51,43,56,44,36,76,76,75,30.09,29.99,0,0,0,0.00
2013-9-27,53,51,46,46,43,39,76,76,76,30.08,29.81,0,0,0,0.00
2013-9-28,58,54,51,50,46,43,77,76,76,29.81,29.32,0,0,0,0.00
2013-9-29,54,52,50,47,44,43,77,76,76,29.53,29.14,0,0,0,0.00
2013-9-30,57,51,48,50,44,41,77,77,76,29.87,29.37,0,0,0,0.00
2013-10-1,57,51,48,50,44,41,77,77,76,30.07,29.87,0,0,0,0.00
2013-10-2,54,50,48,47,43,41,77,77,77,30.13,30.02,0,0,0,0.00
2013-10-3,58,51,47,51,44,40,77,77,76,30.41,30.13,0,0,0,0.00
2013-10-4,63,51,41,55,44,34,78,77,77,30.43,30.31,0,0,0,0.00
2013-10-5,68,54,45,60,46,38,77,77,76,30.32,30.10,0,0,0,0.00
2013-10-6,72,56,45,64,49,38,77,77,76,30.10,29.85,0,0,0,0.00
2013-10-7,56,52,50,48,45,43,77,76,76,29.97,29.84,0,0,0,0.00
2013-10-8,57,50,42,50,43,35,77,76,76,30.04,29.91,0,0,0,0.00
2013-10-9,58,46,38,50,39,31,77,76,76,30.09,29.92,0,0,0,0.00
2013-10-10,47,46,46,40,39,38,76,76,76,29.94,29.89,0,0,0,0.00
2013-10-14,57,46,38,50,39,31,77,77,76,30.37,30.32,0,0,0,0.00
2013-10-15,60,48,39,52,41,32,77,77,76,30.35,30.14,0,0,0,0.00
2013-10-16,52,48,43,45,41,36,77,77,76,30.16,30.11,0,0,0,0.00
2013-10-17,57,50,46,50,43,39,77,77,76,30.24,30.16,0,0,0,0.00
2013-10-18,59,47,38,52,40,31,77,77,76,30.20,30.11,0,0,0,0.00
2013-10-19,50,45,40,44,38,33,77,77,76,30.15,30.11,0,0,0,0.00
2013-10-20,49,47,44,42,40,38,77,77,76,30.17,30.11,0,0,0,0.00
2013-10-21,50,47,44,43,40,38,77,77,77,30.13,30.06,0,0,0,0.00
2013-10-22,53,48,44,46,42,38,78,77,77,30.08,29.99,0,0,0,0.00
2013-10-23,59,48,38,52,41,32,78,77,77,30.01,29.94,0,0,0,0.00
2013-10-24,55,46,38,48,39,32,78,77,77,30.09,29.97,0,0,0,0.00
2013-10-25,51,48,47,45,42,40,78,77,77,30.28,30.08,0,0,0,0.00
2013-10-26,52,49,47,45,42,40,78,78,77,30.29,30.14,0,0,0,0.00
2013-10-27,54,48,42,47,42,36,78,78,77,30.15,29.85,0,0,0,0.00
2013-10-28,57,45,39,50,39,33,79,78,77,29.92,29.83,0,0,0,0.00
2013-10-29,53,41,34,46,35,28,79,78,78,29.99,29.91,0,0,0,0.00
2013-10-30,54,44,35,47,38,29,79,78,78,30.10,29.99,0,0,0,0.00
2013-10-31,52,49,47,45,42,40,78,78,78,30.22,30.06,0,0,0,0.00
2013-11-1,57,52,49,50,46,42,79,78,78,30.23,29.80,0,0,0,0.00
2013-11-2,51,47,43,44,41,36,79,78,78,29.84,29.44,0,0,0,0.00
2013-11-3,47,41,34,41,35,28,79,78,78,30.07,29.84,0,0,0,0.00
2013-11-4,44,38,32,38,32,26,79,78,78,30.15,30.02,0,0,0,0.00
2013-11-5,50,45,41,43,39,34,79,78,78,30.22,29.97,0,0,0,0.00
2013-11-6,50,46,41,44,39,34,79,79,78,30.27,29.98,0,0,0,0.00
2013-11-7,49,47,46,43,41,40,79,79,79,29.97,29.66,0,0,0,0.00
2013-11-8,54,47,43,48,41,37,79,79,78,30.12,29.93,0,0,0,0.00
2013-11-9,50,45,38,44,38,32,79,79,79,30.12,30.02,0,0,0,0.00
2013-11-10,49,46,44,43,40,38,79,79,79,30.11,30.05,0,0,0,0.00
2013-11-11,52,46,39,46,40,33,80,79,79,30.12,29.96,0,0,0,0.00
2013-11-12,56,50,44,49,44,38,80,79,79,30.32,29.98,0,0,0,0.00
2013-11-13,51,51,51,46,45,44,80,79,79,30.33,30.31,0,0,0,0.00
2013-11-14,43,43,43,37,37,36,80,80,79,30.05,30.01,0,0,0,0.00
2013-11-15,45,44,43,39,38,37,80,80,80,30.02,29.30,0,0,0,0.00
2013-11-16,46,41,37,40,36,32,80,80,79,29.73,29.32,0,0,0,0.00
2013-11-17,47,44,38,41,38,32,80,80,79,29.86,29.72,0,0,0,0.00
2013-11-18,49,48,46,43,42,40,81,80,80,29.85,29.51,0,0,0,0.00
2013-11-19,50,43,35,44,37,30,80,80,79,30.02,29.49,0,0,0,0.00
2013-11-20,40,33,29,34,27,24,80,80,79,30.45,30.02,0,0,0,0.00
2013-11-21,38,31,26,32,25,21,80,80,79,30.61,30.45,0,0,0,0.00
2013-11-22,39,31,26,34,26,20,80,80,79,30.59,30.41,0,0,0,0.00
2013-11-23,42,34,29,36,28,23,81,80,80,30.40,30.15,0,0,0,0.00
2013-11-24,43,35,31,37,30,25,81,80,80,30.21,30.12,0,0,0,0.00
2013-11-25,46,38,32,41,32,27,81,80,80,30.27,30.20,0,0,0,0.00
2013-11-26,48,40,32,42,34,26,81,80,80,30.22,30.06,0,0,0,0.00
2013-11-27,49,43,37,43,37,31,80,80,80,30.06,29.91,0,0,0,0.00
2013-11-28,48,40,34,42,34,29,81,80,80,30.13,29.98,0,0,0,0.00
2013-11-29,47,43,39,41,38,33,80,80,80,30.27,30.12,0,0,0,0.00
2013-11-30,48,46,44,42,40,38,80,80,80,30.28,30.04,0,0,0,0.00
2013-12-1,50,48,40,44,42,34,81,80,80,30.04,29.71,0,0,0,0.00
2013-12-2,40,37,34,34,31,29,81,80,80,30.00,29.77,0,0,0,0.00
2013-12-3,36,33,30,30,28,25,80,80,79,30.26,30.00,0,0,0,0.00
2013-12-4,33,29,26,27,24,21,80,80,79,30.29,30.24,0,0,0,0.00
2013-12-5,33,27,24,28,22,18,80,80,79,30.27,30.14,0,0,0,0.00
2013-12-6,30,24,19,24,18,14,80,80,79,30.19,30.10,0,0,0,0.00
2013-12-7,26,20,15,21,14,10,80,80,79,30.36,30.19,0,0,0,0.00
2013-12-8,29,22,16,24,17,10,80,80,79,30.51,30.36,0,0,0,0.00
2013-12-9,31,27,18,26,22,13,80,80,80,30.53,30.42,0,0,0,0.00
2013-12-10,36,33,30,30,27,25,80,80,80,30.43,30.36,0,0,0,0.00
2013-12-11,38,33,29,32,27,24,80,80,80,30.37,30.11,0,0,0,0.00
2013-12-12,33,32,32,27,27,27,80,80,80,30.11,30.06,0,0,0,0.00
2013-12-13,44,43,40,38,37,34,81,80,80,30.37,30.24,0,0,0,0.00
2013-12-14,45,43,40,40,38,35,81,80,80,30.38,30.27,0,0,0,0.00
2013-12-15,47,46,43,41,40,38,81,80,80,30.41,30.28,0,0,0,0.00
2013-12-16,44,40,34,39,34,28,81,80,80,30.45,30.21,0,0,0,0.00
2013-12-17,41,36,32,35,31,27,81,80,80,30.22,30.07,0,0,0,0.00
2013-12-18,43,38,30,37,33,25,81,80,80,30.10,29.97,0,0,0,0.00
2013-12-19,35,30,26,30,25,21,81,80,80,30.29,30.09,0,0,0,0.00
2013-12-20,35,33,31,29,28,26,81,80,80,30.15,29.67,0,0,0,0.00
2013-12-21,41,37,34,35,31,29,81,80,80,30.10,29.79,0,0,0,0.00
2013-12-22,46,42,38,40,37,32,81,81,80,30.25,30.15,0,0,0,0.00
2013-12-23,48,45,40,42,40,35,81,81,81,30.46,30.08,0,0,0,0.00
2013-12-24,43,39,32,38,34,27,81,81,81,30.57,30.46,0,0,0,0.00
2013-12-25,40,34,30,34,29,25,81,81,81,30.49,30.34,0,0,0,0.00
2013-12-26,43,38,35,38,32,30,82,81,81,30.35,30.15,0,0,0,0.00
2013-12-27,42,38,33,37,33,28,82,81,81,30.32,30.05,0,0,0,0.00
2013-12-28,46,42,40,40,37,34,82,81,81,30.47,30.31,0,0,0,0.00
2013-12-29,41,39,36,36,33,31,82,81,81,30.43,30.26,0,0,0,0.00
2013-12-30,42,39,35,37,34,30,82,81,81,30.27,30.06,0,0,0,0.00
2013-12-31,45,43,40,40,38,35,82,81,81,30.33,30.14,0,0,0,0.00
2014-1-1,43,39,34,38,34,29,82,82,81,30.37,30.19,0,0,0,0.00
2014-1-2,45,43,40,40,38,35,82,82,81,30.19,29.85,0,0,0,0.00